Time;durP1;ratioP1;P1;durP2;ratioP2;P2;SDS_P1;SDS_P2;PMS_P1;PMS_P2;Temp;Humidity;BMP_temperature;BMP_pressure;BME280_temperature;BME280_humidity;BME280_pressure;Samples;Min_cycle;Max_cycle;Signal;HPM_P1;HPM_P2
2024/02/16 00:02:12;;;;;;;5.60;5.10;;;12.00;99.90;;;;;;5035156;28;20486;-59
2024/02/16 00:04:40;;;;;;;6.93;6.33;;;11.90;99.90;;;;;;5038534;28;20479;-59
2024/02/16 00:07:08;;;;;;;6.37;5.77;;;11.90;99.90;;;;;;5035832;28;20573;-59
2024/02/16 00:09:36;;;;;;;7.10;5.70;;;11.90;99.90;;;;;;5033482;28;20975;-59
2024/02/16 00:12:06;;;;;;;9.23;5.40;;;11.90;99.90;;;;;;5028069;28;20466;-59
2024/02/16 00:14:34;;;;;;;8.13;5.90;;;11.90;99.90;;;;;;5034879;28;20494;-58
2024/02/16 00:17:03;;;;;;;6.63;5.97;;;11.90;99.90;;;;;;5034250;28;21142;-61
2024/02/16 00:19:31;;;;;;;6.03;5.20;;;11.90;99.90;;;;;;5037381;28;20458;-59
2024/02/16 00:21:59;;;;;;;6.57;5.50;;;11.90;99.90;;;;;;5035665;28;20797;-59
2024/02/16 00:24:27;;;;;;;8.03;5.70;;;11.90;99.90;;;;;;5037443;28;20883;-59
2024/02/16 00:26:55;;;;;;;6.67;6.10;;;11.80;99.90;;;;;;5032338;28;20495;-60
2024/02/16 00:29:25;;;;;;;5.73;5.00;;;11.80;99.90;;;;;;5034445;28;20520;-59
2024/02/16 00:31:53;;;;;;;9.23;5.97;;;11.80;99.90;;;;;;5033059;28;20567;-58
2024/02/16 00:34:21;;;;;;;7.83;5.90;;;11.80;99.90;;;;;;5035764;28;20541;-61
2024/02/16 00:36:50;;;;;;;7.27;6.37;;;11.80;99.90;;;;;;5036873;28;20584;-61
2024/02/16 00:39:17;;;;;;;6.37;5.87;;;11.80;99.90;;;;;;5031161;28;20599;-59
2024/02/16 00:41:46;;;;;;;7.10;5.70;;;11.80;99.90;;;;;;5024504;28;20490;-58
2024/02/16 00:44:14;;;;;;;6.50;5.60;;;11.70;99.90;;;;;;5030065;28;20468;-59
2024/02/16 00:46:43;;;;;;;5.77;5.17;;;11.80;99.90;;;;;;5036302;28;20591;-59
2024/02/16 00:49:12;;;;;;;5.57;5.07;;;11.80;99.90;;;;;;5036583;28;20464;-59
2024/02/16 00:51:41;;;;;;;6.10;5.50;;;11.70;99.90;;;;;;5033010;28;20482;-59
2024/02/16 00:54:09;;;;;;;6.03;5.43;;;11.70;99.90;;;;;;5035337;28;20559;-59
2024/02/16 00:56:38;;;;;;;6.50;5.90;;;11.70;99.90;;;;;;5036684;28;20500;-59
2024/02/16 00:59:08;;;;;;;6.03;5.47;;;11.70;99.90;;;;;;5034394;28;20831;-61
2024/02/16 01:01:37;;;;;;;6.27;5.20;;;11.70;99.90;;;;;;5035270;28;20495;-59
2024/02/16 01:04:06;;;;;;;5.37;4.87;;;11.70;99.90;;;;;;5038139;28;20552;-59
2024/02/16 01:06:35;;;;;;;5.93;5.10;;;11.60;99.90;;;;;;5030104;28;20498;-58
2024/02/16 01:09:03;;;;;;;6.50;5.80;;;11.60;99.90;;;;;;5023176;28;20514;-59
2024/02/16 01:11:32;;;;;;;5.60;5.10;;;11.60;99.90;;;;;;5021800;28;20526;-59
2024/02/16 01:14:00;;;;;;;5.23;4.73;;;11.60;99.90;;;;;;5028381;28;21034;-59
2024/02/16 01:16:28;;;;;;;5.53;5.03;;;11.60;99.90;;;;;;5027393;28;20508;-59
2024/02/16 01:18:56;;;;;;;5.30;4.80;;;11.60;99.90;;;;;;5029546;28;20562;-58
2024/02/16 01:21:26;;;;;;;5.70;5.20;;;11.50;99.90;;;;;;5027769;28;20487;-59
2024/02/16 01:23:54;;;;;;;4.93;4.53;;;11.50;99.90;;;;;;5016742;28;20484;-59
2024/02/16 01:26:22;;;;;;;5.70;5.20;;;11.40;99.90;;;;;;5025181;28;20716;-59
2024/02/16 01:28:50;;;;;;;5.50;5.00;;;11.40;99.90;;;;;;5024609;28;20865;-59
2024/02/16 01:31:18;;;;;;;5.43;5.00;;;11.40;99.90;;;;;;5022442;28;21004;-58
2024/02/16 01:33:46;;;;;;;6.00;4.70;;;11.40;99.90;;;;;;5027339;28;20545;-59
2024/02/16 01:36:15;;;;;;;5.47;4.80;;;11.40;99.90;;;;;;5025190;28;20503;-59
2024/02/16 01:38:44;;;;;;;5.87;4.80;;;11.40;99.90;;;;;;5026830;28;20507;-59
2024/02/16 01:41:14;;;;;;;5.40;4.90;;;11.40;99.90;;;;;;5031773;28;20567;-60
2024/02/16 01:43:42;;;;;;;5.27;4.77;;;11.40;99.90;;;;;;5036253;28;20477;-59
2024/02/16 01:46:11;;;;;;;6.10;5.10;;;11.30;99.90;;;;;;5032616;28;21023;-59
2024/02/16 01:48:39;;;;;;;6.93;4.90;;;11.40;99.90;;;;;;5033061;28;20563;-59
2024/02/16 01:51:10;;;;;;;6.30;4.63;;;11.40;99.90;;;;;;5033910;28;20562;-59
2024/02/16 01:53:39;;;;;;;5.60;5.00;;;11.30;99.90;;;;;;5031906;28;20471;-58
2024/02/16 01:56:09;;;;;;;5.20;4.60;;;11.40;99.90;;;;;;5035049;28;20497;-59
2024/02/16 01:58:37;;;;;;;5.03;4.53;;;11.30;99.90;;;;;;5029874;28;22474;-59
2024/02/16 02:01:05;;;;;;;4.80;4.40;;;11.30;99.90;;;;;;5029628;28;20486;-59
2024/02/16 02:03:34;;;;;;;4.90;4.40;;;11.30;99.90;;;;;;5024180;28;20478;-59
2024/02/16 02:06:03;;;;;;;5.57;5.07;;;11.30;99.90;;;;;;5032680;28;20478;-59
2024/02/16 02:08:31;;;;;;;5.13;4.63;;;11.30;99.90;;;;;;5027287;28;20470;-58
2024/02/16 02:10:59;;;;;;;4.80;4.40;;;11.30;99.90;;;;;;5030025;28;20547;-59
2024/02/16 02:13:30;;;;;;;5.17;4.67;;;11.30;99.90;;;;;;5021071;28;20470;-58
2024/02/16 02:15:59;;;;;;;5.10;4.70;;;11.30;99.90;;;;;;5020632;28;20470;-61
2024/02/16 02:18:27;;;;;;;5.60;5.00;;;11.30;99.90;;;;;;5022040;28;20477;-59
2024/02/16 02:20:55;;;;;;;5.83;5.10;;;11.20;99.90;;;;;;5019187;28;20499;-62
2024/02/16 02:23:25;;;;;;;7.17;4.80;;;11.20;99.90;;;;;;5020290;28;20995;-58
2024/02/16 02:25:53;;;;;;;5.70;5.20;;;11.20;99.90;;;;;;5024595;28;21058;-59
2024/02/16 02:28:23;;;;;;;6.13;5.20;;;11.20;99.90;;;;;;5022121;28;21062;-59
2024/02/16 02:30:53;;;;;;;5.63;5.10;;;11.20;99.90;;;;;;5021101;28;20536;-59
2024/02/16 02:33:21;;;;;;;5.23;4.50;;;11.20;99.90;;;;;;5023444;28;20550;-59
2024/02/16 02:35:49;;;;;;;4.70;4.30;;;11.20;99.90;;;;;;5026967;28;20528;-59
2024/02/16 02:38:18;;;;;;;6.70;4.90;;;11.20;99.90;;;;;;5026530;28;20578;-59
2024/02/16 02:40:47;;;;;;;6.20;5.70;;;11.20;99.90;;;;;;5028169;28;20568;-58
2024/02/16 02:43:15;;;;;;;5.27;4.77;;;11.20;99.90;;;;;;5022333;28;20946;-58
2024/02/16 02:45:43;;;;;;;5.67;4.60;;;11.20;99.90;;;;;;5026069;28;20552;-59
2024/02/16 02:48:11;;;;;;;6.00;4.93;;;11.10;99.90;;;;;;5026834;28;20578;-58
2024/02/16 02:50:39;;;;;;;5.47;4.97;;;11.20;99.90;;;;;;5025771;28;20467;-57
2024/02/16 02:53:07;;;;;;;5.00;4.53;;;11.10;99.90;;;;;;5028776;28;20502;-60
2024/02/16 02:55:35;;;;;;;5.30;4.80;;;11.10;99.90;;;;;;5033334;28;20502;-59
2024/02/16 02:58:05;;;;;;;5.13;4.67;;;11.10;99.90;;;;;;5031610;28;20494;-59
2024/02/16 03:00:33;;;;;;;5.30;4.53;;;11.10;99.90;;;;;;5020401;28;20459;-58
2024/02/16 03:03:01;;;;;;;5.50;5.00;;;11.10;99.90;;;;;;5028853;28;20482;-59
2024/02/16 03:05:29;;;;;;;5.23;4.83;;;11.10;99.90;;;;;;5029799;28;20486;-59
2024/02/16 03:07:58;;;;;;;5.00;4.60;;;11.10;99.90;;;;;;5029042;28;21026;-59
2024/02/16 03:10:26;;;;;;;5.03;4.57;;;11.10;99.90;;;;;;5031048;28;20503;-58
2024/02/16 03:12:55;;;;;;;5.07;4.60;;;11.10;99.90;;;;;;5024543;28;22350;-58
2024/02/16 03:15:24;;;;;;;6.10;4.80;;;11.10;99.90;;;;;;5028235;28;20489;-58
2024/02/16 03:17:52;;;;;;;5.23;4.67;;;11.10;99.90;;;;;;5029920;28;20501;-59
2024/02/16 03:20:21;;;;;;;4.97;4.50;;;11.10;99.90;;;;;;5035827;28;20500;-59
2024/02/16 03:22:49;;;;;;;4.90;4.40;;;11.10;99.90;;;;;;5030579;28;20495;-58
2024/02/16 03:25:17;;;;;;;4.47;4.17;;;11.10;99.90;;;;;;5035659;28;20498;-59
2024/02/16 03:27:46;;;;;;;5.07;4.67;;;11.10;99.90;;;;;;5033136;28;20527;-59
2024/02/16 03:30:14;;;;;;;4.70;4.20;;;11.10;99.90;;;;;;5032181;28;20524;-59
2024/02/16 03:32:44;;;;;;;7.70;4.03;;;11.10;99.90;;;;;;5032315;28;20501;-59
2024/02/16 03:35:12;;;;;;;5.63;4.70;;;11.10;99.90;;;;;;5035811;28;20475;-59
2024/02/16 03:37:40;;;;;;;5.13;4.70;;;11.10;99.90;;;;;;5034564;28;20585;-59
2024/02/16 03:40:09;;;;;;;4.60;4.20;;;11.10;99.90;;;;;;5038274;28;20537;-60
2024/02/16 03:42:37;;;;;;;4.47;4.10;;;11.10;99.90;;;;;;5034103;28;20487;-60
2024/02/16 03:45:06;;;;;;;4.80;4.30;;;11.10;99.90;;;;;;5036372;28;20598;-60
2024/02/16 03:47:34;;;;;;;4.63;4.23;;;11.10;99.90;;;;;;5035878;28;20912;-60
2024/02/16 03:50:04;;;;;;;4.50;4.10;;;11.10;99.90;;;;;;5033191;28;20546;-60
2024/02/16 03:52:32;;;;;;;6.10;4.40;;;11.10;99.90;;;;;;5035639;28;20668;-60
2024/02/16 03:55:01;;;;;;;4.93;4.43;;;11.10;99.90;;;;;;5037498;28;20533;-59
2024/02/16 03:57:31;;;;;;;5.40;4.30;;;11.10;99.90;;;;;;5038202;28;20499;-60
2024/02/16 04:00:00;;;;;;;4.47;3.80;;;11.10;99.90;;;;;;5037237;28;20467;-60
2024/02/16 04:02:28;;;;;;;4.00;3.60;;;11.10;99.90;;;;;;5033752;28;20529;-60
2024/02/16 04:04:56;;;;;;;3.97;3.57;;;11.10;99.90;;;;;;5027731;28;20470;-60
2024/02/16 04:07:25;;;;;;;4.73;4.17;;;11.10;99.90;;;;;;5027612;28;23619;-60
2024/02/16 04:09:53;;;;;;;5.00;4.17;;;11.10;99.90;;;;;;5033466;28;20477;-60
2024/02/16 04:12:21;;;;;;;4.50;4.10;;;11.10;99.90;;;;;;5036110;28;20485;-60
2024/02/16 04:14:49;;;;;;;3.77;3.47;;;11.10;99.90;;;;;;5030846;28;20471;-60
2024/02/16 04:17:17;;;;;;;5.13;4.00;;;11.10;99.90;;;;;;5032598;28;20482;-59
2024/02/16 04:19:45;;;;;;;4.40;3.67;;;11.20;99.90;;;;;;5032921;28;20566;-60
2024/02/16 04:22:13;;;;;;;4.80;3.70;;;11.20;99.90;;;;;;5025429;28;20490;-59
2024/02/16 04:24:43;;;;;;;3.90;3.50;;;11.20;99.90;;;;;;5033082;28;20499;-60
2024/02/16 04:27:11;;;;;;;4.20;3.90;;;11.20;99.90;;;;;;5024116;28;20578;-59
2024/02/16 04:29:39;;;;;;;4.17;3.77;;;11.20;99.90;;;;;;5029091;28;20470;-60
2024/02/16 04:32:07;;;;;;;3.80;3.50;;;11.20;99.90;;;;;;5023779;28;21142;-60
2024/02/16 04:34:35;;;;;;;3.73;3.43;;;11.20;99.90;;;;;;5026324;28;20479;-58
2024/02/16 04:37:04;;;;;;;4.90;3.27;;;11.20;99.90;;;;;;5029168;28;20518;-60
2024/02/16 04:39:32;;;;;;;3.90;3.50;;;11.20;99.90;;;;;;5034684;28;20513;-60
2024/02/16 04:42:01;;;;;;;4.50;3.93;;;11.20;99.90;;;;;;5028652;28;20487;-60
2024/02/16 04:44:29;;;;;;;4.93;3.93;;;11.20;99.90;;;;;;5033845;28;20471;-59
2024/02/16 04:46:57;;;;;;;2.90;2.70;;;11.20;99.90;;;;;;5031990;28;20580;-59
2024/02/16 04:49:25;;;;;;;4.40;3.50;;;11.20;99.90;;;;;;5031243;28;20462;-59
2024/02/16 04:51:53;;;;;;;4.17;3.50;;;11.20;99.90;;;;;;5028157;28;20534;-58
2024/02/16 04:54:22;;;;;;;6.30;3.47;;;11.20;99.90;;;;;;5029353;28;20567;-59
2024/02/16 04:56:50;;;;;;;4.80;4.40;;;11.20;99.90;;;;;;5028871;28;20494;-58
2024/02/16 04:59:20;;;;;;;6.50;3.57;;;11.20;99.90;;;;;;5030767;28;20632;-59
2024/02/16 05:01:48;;;;;;;4.10;3.70;;;11.20;99.90;;;;;;5027103;28;21365;-59
2024/02/16 05:04:16;;;;;;;4.03;3.27;;;11.20;99.90;;;;;;5026192;28;20617;-59
2024/02/16 05:06:46;;;;;;;3.67;3.30;;;11.20;99.90;;;;;;5035157;28;20876;-59
2024/02/16 05:09:16;;;;;;;4.13;3.57;;;11.20;99.90;;;;;;5027221;28;21015;-59
2024/02/16 05:11:45;;;;;;;3.90;3.20;;;11.20;99.90;;;;;;5027475;28;20484;-59
2024/02/16 05:14:13;;;;;;;3.60;3.30;;;11.20;99.90;;;;;;5023804;28;20470;-59
2024/02/16 05:16:45;;;;;;;3.50;3.20;;;11.20;99.90;;;;;;5033997;28;20576;-59
2024/02/16 05:19:13;;;;;;;4.17;3.33;;;11.20;99.90;;;;;;5032725;28;20526;-59
2024/02/16 05:21:41;;;;;;;4.27;3.20;;;11.20;99.90;;;;;;5032534;28;21089;-59
2024/02/16 05:24:09;;;;;;;3.70;3.40;;;11.20;99.90;;;;;;5026864;28;20584;-58
2024/02/16 05:26:38;;;;;;;3.30;3.00;;;11.20;99.90;;;;;;5025029;28;20495;-59
2024/02/16 05:29:06;;;;;;;4.77;3.43;;;11.20;99.90;;;;;;5027971;28;20525;-59
2024/02/16 05:31:34;;;;;;;3.60;3.30;;;11.20;99.90;;;;;;5021469;28;20590;-59
2024/02/16 05:34:03;;;;;;;4.17;3.77;;;11.20;99.90;;;;;;5018861;28;20481;-59
2024/02/16 05:36:35;;;;;;;3.43;3.13;;;11.20;99.90;;;;;;5029127;28;20897;-57
2024/02/16 05:39:20;;;;;;;3.90;3.60;;;11.20;99.90;;;;;;5034572;28;20496;-59
2024/02/16 05:41:48;;;;;;;3.83;3.43;;;11.20;99.90;;;;;;5032200;28;20486;-59
2024/02/16 05:44:16;;;;;;;4.40;3.50;;;11.20;99.90;;;;;;5030168;28;20471;-59
2024/02/16 05:46:45;;;;;;;3.27;2.97;;;11.20;99.90;;;;;;5034445;28;20521;-59
2024/02/16 05:49:15;;;;;;;3.47;3.20;;;11.20;99.90;;;;;;5028171;28;20966;-58
2024/02/16 05:52:17;;;;;;;4.03;3.63;;;11.20;99.90;;;;;;5027521;28;20468;-58
2024/02/16 05:54:32;;;;;;;3.47;3.20;;;11.20;99.90;;;;;;5028368;28;20468;-59
2024/02/16 05:57:05;;;;;;;4.23;3.10;;;11.20;99.90;;;;;;5030385;28;20525;-60
2024/02/16 05:59:33;;;;;;;4.63;3.27;;;11.20;99.90;;;;;;5029909;28;20499;-60
2024/02/16 06:02:01;;;;;;;3.73;3.30;;;11.20;99.90;;;;;;5028147;28;20494;-59
2024/02/16 06:04:31;;;;;;;3.90;3.43;;;11.20;99.90;;;;;;5020889;28;20470;-60
2024/02/16 06:06:59;;;;;;;3.90;3.43;;;11.10;99.90;;;;;;5033321;28;20490;-60
2024/02/16 06:09:33;;;;;;;3.50;3.20;;;11.10;99.90;;;;;;5030008;28;20617;-58
2024/02/16 06:12:04;;;;;;;3.43;3.23;;;11.20;99.90;;;;;;5033516;28;20588;-60
2024/02/16 06:14:32;;;;;;;3.60;3.30;;;11.10;99.90;;;;;;5027247;28;20468;-60
2024/02/16 06:17:01;;;;;;;5.00;3.33;;;11.10;99.90;;;;;;5023599;28;20922;-59
2024/02/16 06:19:29;;;;;;;4.57;3.50;;;11.20;99.90;;;;;;5029122;28;20552;-60
2024/02/16 06:21:58;;;;;;;3.67;3.30;;;11.10;99.90;;;;;;5034631;28;20572;-60
2024/02/16 06:24:27;;;;;;;4.40;3.30;;;11.10;99.90;;;;;;5028936;28;21221;-60
2024/02/16 06:26:55;;;;;;;3.00;2.70;;;11.10;99.90;;;;;;5032588;28;20493;-59
2024/02/16 06:29:25;;;;;;;3.33;3.03;;;11.10;99.90;;;;;;5026588;28;20828;-60
2024/02/16 06:31:53;;;;;;;3.90;3.27;;;11.10;99.90;;;;;;5032741;28;20517;-60
2024/02/16 06:34:21;;;;;;;4.80;3.70;;;11.10;99.90;;;;;;5034062;28;20462;-60
2024/02/16 06:36:50;;;;;;;5.83;3.67;;;11.10;99.90;;;;;;5037648;28;20572;-59
2024/02/16 06:39:19;;;;;;;4.33;3.20;;;11.10;99.90;;;;;;5029342;28;20501;-59
2024/02/16 06:41:49;;;;;;;4.00;3.33;;;11.10;99.90;;;;;;5029846;28;20494;-60
2024/02/16 06:44:17;;;;;;;3.57;3.27;;;11.10;99.90;;;;;;5035177;28;20477;-59
2024/02/16 06:46:50;;;;;;;5.50;3.83;;;11.10;99.90;;;;;;5031050;28;20499;-60
2024/02/16 06:49:18;;;;;;;4.00;3.43;;;11.00;99.90;;;;;;5035690;28;20821;-60
2024/02/16 06:51:46;;;;;;;3.83;3.47;;;11.10;99.90;;;;;;5035049;28;20501;-60
2024/02/16 06:54:15;;;;;;;4.73;3.63;;;11.10;99.90;;;;;;5036316;28;20559;-62
2024/02/16 06:56:44;;;;;;;4.33;3.03;;;11.10;99.90;;;;;;5033020;28;20489;-60
2024/02/16 06:59:12;;;;;;;4.70;3.73;;;11.00;99.90;;;;;;5032265;28;20584;-60
2024/02/16 07:01:41;;;;;;;4.53;3.03;;;11.10;99.90;;;;;;5033184;28;20588;-59
2024/02/16 07:04:09;;;;;;;4.27;3.87;;;11.10;99.90;;;;;;5037044;28;20471;-60
2024/02/16 07:06:38;;;;;;;4.17;3.60;;;11.10;99.90;;;;;;5029187;28;20494;-61
2024/02/16 07:09:06;;;;;;;3.90;3.60;;;11.00;99.90;;;;;;5028610;28;20470;-60
2024/02/16 07:11:35;;;;;;;5.60;3.70;;;11.10;99.90;;;;;;5030795;28;20490;-60
2024/02/16 07:14:06;;;;;;;5.70;3.40;;;11.00;99.90;;;;;;5035455;28;20459;-60
2024/02/16 07:16:34;;;;;;;4.50;4.10;;;11.00;99.90;;;;;;5031476;28;20971;-60
2024/02/16 07:19:02;;;;;;;3.93;3.27;;;11.00;99.90;;;;;;5030261;28;20502;-60
2024/02/16 07:21:30;;;;;;;4.33;3.43;;;11.00;99.90;;;;;;5037282;28;20490;-60
2024/02/16 07:23:58;;;;;;;5.37;3.73;;;11.00;99.90;;;;;;5034139;28;20902;-60
2024/02/16 07:26:26;;;;;;;3.53;3.23;;;11.00;99.90;;;;;;5032019;28;20925;-60
2024/02/16 07:28:54;;;;;;;5.00;3.37;;;11.00;99.90;;;;;;5027696;28;20507;-60
2024/02/16 07:31:24;;;;;;;3.70;3.40;;;11.10;99.90;;;;;;5026562;28;20492;-61
2024/02/16 07:33:52;;;;;;;4.50;3.70;;;11.10;99.90;;;;;;5029216;28;20905;-60
2024/02/16 07:36:20;;;;;;;3.87;3.20;;;11.10;99.90;;;;;;5027069;28;20501;-59
2024/02/16 07:38:48;;;;;;;3.73;3.40;;;11.10;99.90;;;;;;5024681;28;20464;-64
2024/02/16 07:41:16;;;;;;;4.80;3.30;;;11.10;99.90;;;;;;5031115;28;20486;-60
2024/02/16 07:43:44;;;;;;;4.67;3.20;;;11.20;99.90;;;;;;5037535;28;20474;-58
2024/02/16 07:46:12;;;;;;;3.80;3.13;;;11.20;99.90;;;;;;5037627;28;20581;-60
2024/02/16 07:48:42;;;;;;;4.93;3.10;;;11.20;99.90;;;;;;5036966;28;20564;-59
2024/02/16 07:51:10;;;;;;;3.53;3.20;;;11.30;99.90;;;;;;5036393;28;20487;-61
2024/02/16 07:53:41;;;;;;;5.90;3.00;;;11.30;99.90;;;;;;5039254;28;20551;-59
2024/02/16 07:56:09;;;;;;;3.80;3.37;;;11.30;99.90;;;;;;5040647;28;20466;-58
2024/02/16 07:58:37;;;;;;;3.57;3.27;;;11.30;99.90;;;;;;5038255;28;20470;-59
2024/02/16 08:01:06;;;;;;;3.63;3.17;;;11.40;99.90;;;;;;5038750;28;20903;-59
2024/02/16 08:03:34;;;;;;;6.63;3.77;;;11.40;99.90;;;;;;5034305;28;20482;-59
2024/02/16 08:06:03;;;;;;;5.27;3.40;;;11.40;99.90;;;;;;5027328;28;20964;-59
2024/02/16 08:08:32;;;;;;;4.10;3.10;;;11.40;99.90;;;;;;5027314;28;20491;-59
2024/02/16 08:11:00;;;;;;;3.10;2.90;;;11.40;99.90;;;;;;5025118;28;20518;-59
2024/02/16 08:13:28;;;;;;;3.20;2.90;;;11.50;99.90;;;;;;5028962;28;20562;-59
2024/02/16 08:15:57;;;;;;;6.50;3.90;;;11.50;99.90;;;;;;5025860;28;20510;-59
2024/02/16 08:18:25;;;;;;;4.20;3.33;;;11.50;99.90;;;;;;5029620;28;20474;-59
2024/02/16 08:20:53;;;;;;;3.77;3.27;;;11.60;99.90;;;;;;5029424;28;20490;-59
2024/02/16 08:23:23;;;;;;;4.17;3.27;;;11.60;99.90;;;;;;5027658;28;20471;-59
2024/02/16 08:25:51;;;;;;;3.40;3.10;;;11.60;99.90;;;;;;5026607;28;20479;-59
2024/02/16 08:28:19;;;;;;;5.30;3.37;;;11.70;99.90;;;;;;5027220;28;20561;-59
2024/02/16 08:30:47;;;;;;;3.40;3.10;;;11.70;99.90;;;;;;5026255;28;20566;-59
2024/02/16 08:33:15;;;;;;;3.37;3.07;;;11.70;99.90;;;;;;5026808;28;20553;-59
2024/02/16 08:35:43;;;;;;;3.63;3.30;;;11.70;99.90;;;;;;5029795;28;20513;-59
2024/02/16 08:38:12;;;;;;;3.90;3.13;;;11.70;99.90;;;;;;5034060;28;20523;-59
2024/02/16 08:40:42;;;;;;;3.63;3.03;;;11.70;99.90;;;;;;5028764;28;20992;-59
2024/02/16 08:43:10;;;;;;;4.90;2.87;;;11.70;99.90;;;;;;5030825;28;20991;-58
2024/02/16 08:45:38;;;;;;;4.33;3.10;;;11.70;99.90;;;;;;5030054;28;20470;-59
2024/02/16 08:48:09;;;;;;;3.50;3.20;;;11.80;99.90;;;;;;5029878;28;20916;-58
2024/02/16 08:50:37;;;;;;;3.63;3.23;;;11.70;99.90;;;;;;5028821;28;20474;-59
2024/02/16 08:53:05;;;;;;;3.40;2.93;;;11.80;99.90;;;;;;5030114;28;20502;-59
2024/02/16 08:55:33;;;;;;;3.00;2.70;;;11.80;99.90;;;;;;5023491;28;21069;-58
2024/02/16 08:58:03;;;;;;;3.20;2.80;;;11.80;99.90;;;;;;5026734;28;20884;-58
2024/02/16 09:00:31;;;;;;;3.53;3.20;;;11.80;99.90;;;;;;5026111;28;20526;-59
2024/02/16 09:03:02;;;;;;;5.37;3.13;;;11.80;99.90;;;;;;5026959;28;20463;-59
2024/02/16 09:05:30;;;;;;;6.93;2.80;;;11.80;99.90;;;;;;5029547;28;20474;-58
2024/02/16 09:07:58;;;;;;;3.30;3.00;;;11.80;99.90;;;;;;5029207;28;20943;-56
2024/02/16 09:10:26;;;;;;;4.00;3.03;;;11.80;99.90;;;;;;5026193;28;20475;-55
2024/02/16 09:12:54;;;;;;;4.00;3.20;;;11.80;99.90;;;;;;5024299;28;20486;-59
2024/02/16 09:15:23;;;;;;;4.47;3.20;;;11.80;99.90;;;;;;5023472;28;20551;-56
2024/02/16 09:17:53;;;;;;;5.17;3.30;;;11.80;99.90;;;;;;5030752;28;21246;-57
2024/02/16 09:20:22;;;;;;;4.73;2.77;;;11.80;99.90;;;;;;5032007;28;20560;-57
2024/02/16 09:22:50;;;;;;;5.13;2.80;;;11.80;99.90;;;;;;5028756;28;20868;-57
2024/02/16 09:25:18;;;;;;;3.23;2.93;;;11.80;99.90;;;;;;5029798;28;20474;-57
2024/02/16 09:27:46;;;;;;;3.27;2.97;;;11.80;99.90;;;;;;5033623;28;20582;-56
2024/02/16 09:30:15;;;;;;;5.47;3.10;;;11.80;99.90;;;;;;5034769;28;20870;-56
2024/02/16 09:32:44;;;;;;;3.80;3.40;;;11.80;99.90;;;;;;5030221;28;20549;-56
2024/02/16 09:35:13;;;;;;;3.93;3.10;;;11.90;99.90;;;;;;5031775;28;20479;-57
2024/02/16 09:37:41;;;;;;;5.03;2.93;;;11.90;99.90;;;;;;5034810;28;20587;-56
2024/02/16 09:40:12;;;;;;;3.20;2.90;;;11.90;99.90;;;;;;5021359;28;21497;-57
2024/02/16 09:42:41;;;;;;;4.03;2.90;;;12.00;99.90;;;;;;5036385;28;20498;-57
2024/02/16 09:45:11;;;;;;;5.17;3.27;;;12.00;99.90;;;;;;5033456;28;20495;-57
2024/02/16 09:47:41;;;;;;;2.90;2.70;;;12.00;99.90;;;;;;5034911;28;21014;-57
2024/02/16 09:50:23;;;;;;;3.60;2.70;;;12.00;99.90;;;;;;5036557;28;20502;-57
2024/02/16 09:52:52;;;;;;;2.83;2.60;;;12.10;99.90;;;;;;5033897;28;20478;-57
2024/02/16 09:55:19;;;;;;;4.00;2.87;;;12.10;99.90;;;;;;5037375;28;20972;-57
2024/02/16 09:57:48;;;;;;;3.00;2.70;;;12.10;99.90;;;;;;5033182;28;20576;-57
2024/02/16 10:00:16;;;;;;;3.03;2.73;;;12.20;99.90;;;;;;5035796;28;21057;-57
2024/02/16 10:02:46;;;;;;;3.20;2.73;;;12.20;99.90;;;;;;5031330;28;20490;-57
2024/02/16 10:05:16;;;;;;;4.30;2.70;;;12.20;99.90;;;;;;5029373;28;20482;-57
2024/02/16 10:07:46;;;;;;;3.40;3.10;;;12.20;99.90;;;;;;5028296;28;20995;-56
2024/02/16 10:10:22;;;;;;;2.93;2.67;;;12.30;99.90;;;;;;5023528;28;20475;-57
2024/02/16 10:12:51;;;;;;;2.53;2.30;;;12.30;99.90;;;;;;5027032;28;20493;-56
2024/02/16 10:15:23;;;;;;;3.30;2.93;;;12.30;99.90;;;;;;5020856;28;20506;-56
2024/02/16 10:18:00;;;;;;;3.40;2.93;;;12.40;99.90;;;;;;5022922;28;20621;-56
2024/02/16 10:20:29;;;;;;;3.27;2.77;;;12.50;99.90;;;;;;5028082;28;20815;-56
2024/02/16 10:23:20;;;;;;;3.40;3.10;;;12.50;99.90;;;;;;5027699;28;21062;-56
2024/02/16 10:25:48;;;;;;;3.20;2.90;;;12.70;99.90;;;;;;5021973;28;20475;-57
2024/02/16 10:28:17;;;;;;;3.57;2.57;;;12.70;99.90;;;;;;5022948;28;20486;-56
2024/02/16 10:30:45;;;;;;;2.90;2.70;;;12.70;99.90;;;;;;5023048;28;20482;-57
2024/02/16 10:33:13;;;;;;;3.97;3.20;;;12.70;99.90;;;;;;5021429;28;20573;-55
2024/02/16 10:35:43;;;;;;;4.50;3.20;;;12.80;99.90;;;;;;5022085;28;20557;-56
2024/02/16 10:38:11;;;;;;;4.23;2.97;;;12.90;99.90;;;;;;5026308;28;20868;-56
2024/02/16 10:40:42;;;;;;;3.33;3.03;;;12.90;99.90;;;;;;5015471;28;20477;-57
2024/02/16 10:43:10;;;;;;;3.53;3.20;;;12.90;99.90;;;;;;5021442;28;22529;-58
2024/02/16 10:45:40;;;;;;;4.40;3.20;;;12.90;99.90;;;;;;5030218;28;20514;-58
2024/02/16 10:48:09;;;;;;;3.27;2.90;;;13.00;99.90;;;;;;5025914;28;20954;-58
2024/02/16 10:50:38;;;;;;;4.97;3.30;;;13.00;99.90;;;;;;5032605;28;20987;-56
2024/02/16 10:53:13;;;;;;;5.77;2.90;;;13.00;99.90;;;;;;5027547;28;20467;-58
2024/02/16 10:55:44;;;;;;;3.50;3.20;;;13.00;99.90;;;;;;5032706;28;20528;-58
2024/02/16 10:58:13;;;;;;;2.83;2.63;;;13.00;99.90;;;;;;5034546;28;20572;-58
2024/02/16 11:00:52;;;;;;;3.27;3.07;;;13.10;99.90;;;;;;5029701;28;20470;-57
2024/02/16 11:03:25;;;;;;;4.17;3.20;;;13.10;99.90;;;;;;5038398;28;20476;-58
2024/02/16 11:05:54;;;;;;;4.30;2.80;;;13.20;99.90;;;;;;5031230;28;20467;-58
2024/02/16 11:08:26;;;;;;;3.43;2.93;;;13.20;99.90;;;;;;5031044;28;21296;-58
2024/02/16 11:11:03;;;;;;;6.43;3.83;;;13.30;99.90;;;;;;5031456;28;20494;-57
2024/02/16 11:13:34;;;;;;;3.30;3.00;;;13.40;99.90;;;;;;5034736;28;21006;-58
2024/02/16 11:16:03;;;;;;;3.47;3.17;;;13.50;99.90;;;;;;5034973;28;20919;-58
2024/02/16 11:18:32;;;;;;;3.60;3.07;;;13.60;99.90;;;;;;5037244;28;21050;-58
2024/02/16 11:21:05;;;;;;;4.13;3.23;;;13.70;99.90;;;;;;5033683;28;20842;-57
2024/02/16 11:23:35;;;;;;;3.43;3.13;;;13.80;99.90;;;;;;5031920;28;20474;-58
2024/02/16 11:26:08;;;;;;;3.40;2.50;;;13.90;99.90;;;;;;5034914;28;20544;-58
2024/02/16 11:28:37;;;;;;;3.40;2.63;;;14.00;99.90;;;;;;5034951;28;20984;-58
2024/02/16 11:31:07;;;;;;;4.13;2.93;;;14.00;99.90;;;;;;5030968;28;21295;-57
2024/02/16 11:33:35;;;;;;;3.63;2.70;;;14.10;99.90;;;;;;5034540;28;20558;-57
2024/02/16 11:36:08;;;;;;;3.77;3.33;;;14.10;99.90;;;;;;5032790;28;20940;-58
2024/02/16 11:38:36;;;;;;;2.50;2.30;;;14.10;99.90;;;;;;5031095;28;20483;-58
2024/02/16 11:41:07;;;;;;;3.77;2.87;;;14.10;99.90;;;;;;5033643;28;20490;-56
2024/02/16 11:43:35;;;;;;;3.90;2.60;;;14.20;99.90;;;;;;5036986;28;20548;-57
2024/02/16 11:46:13;;;;;;;3.30;3.00;;;14.20;99.90;;;;;;5039396;28;20479;-57
2024/02/16 11:48:42;;;;;;;3.70;3.03;;;14.20;99.90;;;;;;5038191;28;20521;-57
2024/02/16 11:51:10;;;;;;;5.80;3.20;;;14.20;99.90;;;;;;5037468;28;20483;-56
2024/02/16 11:53:38;;;;;;;3.97;3.00;;;14.20;99.90;;;;;;5037196;28;20474;-56
2024/02/16 11:56:08;;;;;;;3.33;3.03;;;14.20;99.90;;;;;;5038359;28;20467;-55
2024/02/16 11:58:36;;;;;;;3.67;3.20;;;14.30;99.90;;;;;;5035394;28;20485;-57
2024/02/16 12:01:11;;;;;;;3.70;3.00;;;14.40;99.90;;;;;;5039080;28;20506;-56
2024/02/16 12:03:42;;;;;;;3.03;2.80;;;14.60;99.90;;;;;;5032209;28;20481;-56
2024/02/16 12:06:20;;;;;;;4.43;3.10;;;14.80;99.90;;;;;;5031088;28;20553;-56
2024/02/16 12:08:48;;;;;;;2.83;2.60;;;15.20;99.90;;;;;;5033432;28;20471;-56
2024/02/16 12:11:17;;;;;;;3.40;3.10;;;15.60;99.90;;;;;;5030845;28;20722;-58
2024/02/16 12:13:46;;;;;;;3.50;2.93;;;15.80;99.90;;;;;;5032514;28;20553;-58
2024/02/16 12:16:14;;;;;;;2.93;2.70;;;15.70;99.90;;;;;;5027379;28;20551;-58
2024/02/16 12:18:42;;;;;;;4.70;3.10;;;15.60;99.90;;;;;;5035100;28;20473;-58
2024/02/16 12:21:10;;;;;;;4.00;2.97;;;15.50;99.90;;;;;;5030083;28;20517;-58
2024/02/16 12:23:38;;;;;;;3.40;3.13;;;15.40;99.90;;;;;;5027292;28;20497;-58
2024/02/16 12:26:06;;;;;;;4.90;3.70;;;15.30;99.90;;;;;;5025223;28;20519;-58
2024/02/16 12:28:36;;;;;;;4.43;3.07;;;15.20;99.90;;;;;;5027181;28;20489;-58
2024/02/16 12:31:05;;;;;;;3.57;3.30;;;15.20;99.90;;;;;;5031041;28;20666;-58
2024/02/16 12:33:33;;;;;;;5.07;3.40;;;15.20;99.90;;;;;;5035079;28;20548;-58
2024/02/16 12:36:01;;;;;;;4.33;3.33;;;15.30;99.90;;;;;;5034667;28;20570;-56
2024/02/16 12:38:29;;;;;;;5.50;3.30;;;15.40;99.90;;;;;;5035518;28;20471;-58
2024/02/16 12:40:57;;;;;;;4.87;3.50;;;15.50;99.90;;;;;;5028583;28;20601;-57
2024/02/16 12:43:25;;;;;;;3.80;3.20;;;15.60;99.90;;;;;;5026763;28;20494;-58
2024/02/16 12:45:55;;;;;;;3.57;3.20;;;15.50;99.90;;;;;;5030294;28;20550;-57
2024/02/16 12:48:23;;;;;;;4.93;4.43;;;15.40;99.90;;;;;;5032039;28;20470;-58
2024/02/16 12:50:52;;;;;;;4.60;3.30;;;15.40;99.90;;;;;;5036911;28;20857;-61
2024/02/16 12:53:20;;;;;;;4.67;3.60;;;15.30;99.90;;;;;;5034813;28;20498;-61
2024/02/16 12:55:48;;;;;;;4.10;3.37;;;15.30;99.90;;;;;;5029358;28;20554;-59
2024/02/16 12:58:16;;;;;;;4.50;4.10;;;15.20;99.90;;;;;;5027885;28;21018;-59